»·PEaware :: ASA186 KMRY-KLAX

ASA186 :: KMRY-KLAX

FLIGHT INFORMATION

Flight Status: Arrived
Operator:
Alaska Airlines
More flights by this operator :: More flights under this callsign
Pilot: Ben L. (6391)
Aircraft: BOEING 737-800
(B738)
More flights by this aircraft type
Origin: KMRY Monterey Peninsula
United States
Destination: KLAX Los Angeles Intl
United States
More flights between these airports :: More routes between these airports
Route: MRY5 BSR LIBBO TOKIO HUULL2
File this flight plan on PilotEdge
Remarks:
Altitude:
(Current/Filed)
25,000ft
Speed:
(Current/Filed)
460kts
Departed: 24-Apr-19 05:06 PM
Arrived: 24-Apr-19 06:00 PM
Distance/Time
Traveled:
231nm/0:53
Distance/Time
To Go:
Arrived

Flight Plot

Page will automatically refresh every two minutes.

Flight plan parsing failed; only flown route is shown


Map Options




Map Legend


Flown Route
Filed Route
Departure Airport
Arrival Airport
Navaid (VOR, NDB)
Fix

Horizontal Profiles

Position Reports

Time Latitude Longitude Heading Altitude Ground
Speed
24-Apr-19 16:42 36.587558 -121.849696 256 169ft 0kts
24-Apr-19 16:43 36.587558 -121.849696 256 169ft 0kts
24-Apr-19 16:44 36.587558 -121.849696 256 169ft 0kts
24-Apr-19 16:45 36.587558 -121.849696 256 169ft 0kts
24-Apr-19 16:46 36.587558 -121.849696 256 169ft 0kts
24-Apr-19 16:47 36.587558 -121.849696 256 169ft 0kts
24-Apr-19 16:48 36.587558 -121.849696 256 169ft 0kts
24-Apr-19 16:49 36.587558 -121.849696 256 169ft 0kts
24-Apr-19 16:50 36.587558 -121.849696 256 169ft 0kts
24-Apr-19 16:51 36.587558 -121.849696 256 169ft 0kts
24-Apr-19 16:52 36.587558 -121.849696 256 169ft 0kts
24-Apr-19 16:53 36.587558 -121.849696 256 169ft 0kts
24-Apr-19 16:54 36.587558 -121.849696 256 169ft 0kts
24-Apr-19 16:55 36.587558 -121.849696 256 169ft 0kts
24-Apr-19 16:56 36.587462 -121.849271 290 169ft 2kts
24-Apr-19 16:57 36.587350 -121.848972 290 169ft 5kts
24-Apr-19 16:58 36.588003 -121.850133 44 169ft 2kts
24-Apr-19 16:59 36.588016 -121.849839 111 169ft 0kts
24-Apr-19 17:00 36.587209 -121.848526 102 169ft 2kts
24-Apr-19 17:01 36.586486 -121.845645 114 169ft 24kts
24-Apr-19 17:02 36.583471 -121.836866 112 169ft 24kts
24-Apr-19 17:03 36.582901 -121.834449 82 169ft 0kts
24-Apr-19 17:04 36.583523 -121.834141 294 169ft 0kts
24-Apr-19 17:05 36.596038 -121.870986 295 1652ft 176kts
24-Apr-19 17:06 36.636574 -121.903318 11 4245ft 208kts
24-Apr-19 17:07 36.675905 -121.835681 62 7114ft 279kts
24-Apr-19 17:08 36.665948 -121.748650 154 10540ft 315kts
24-Apr-19 17:09 36.574544 -121.749975 187 13797ft 344kts
24-Apr-19 17:10 36.477092 -121.764241 188 17084ft 362kts
24-Apr-19 17:11 36.375064 -121.779121 188 20109ft 378kts
24-Apr-19 17:12 36.268558 -121.794603 188 22848ft 393kts
24-Apr-19 17:13 36.157821 -121.804294 176 24983ft 413kts
24-Apr-19 17:14 36.040080 -121.785936 174 24993ft 430kts
24-Apr-19 17:15 35.924755 -121.751116 145 25000ft 439kts
24-Apr-19 17:16 35.834908 -121.649384 139 24983ft 447kts
24-Apr-19 17:17 35.741857 -121.545561 139 25187ft 464kts
24-Apr-19 17:18 35.645660 -121.438267 139 24941ft 466kts
24-Apr-19 17:19 35.549308 -121.330715 139 24938ft 466kts
24-Apr-19 17:20 35.452538 -121.222573 139 24938ft 466kts
24-Apr-19 17:21 35.356665 -121.114817 138 24954ft 465kts
24-Apr-19 17:22 35.262033 -121.006698 138 24986ft 464kts
24-Apr-19 17:23 35.167444 -120.898828 138 24993ft 464kts
24-Apr-19 17:24 35.072698 -120.791566 138 24994ft 463kts
24-Apr-19 17:25 34.976797 -120.686023 144 25006ft 460kts
24-Apr-19 17:26 34.874279 -120.599235 147 25019ft 456kts
24-Apr-19 17:27 34.767826 -120.514204 147 25021ft 456kts
24-Apr-19 17:28 34.661333 -120.429150 147 25017ft 458kts
24-Apr-19 17:29 34.554612 -120.344510 148 25007ft 461kts
24-Apr-19 17:30 34.448678 -120.260508 148 24991ft 434kts
24-Apr-19 17:31 34.347985 -120.181224 148 24991ft 429kts
24-Apr-19 17:32 34.255865 -120.091458 128 23527ft 422kts
24-Apr-19 17:33 34.207361 -119.972764 103 23014ft 390kts
24-Apr-19 17:34 34.197915 -119.838833 90 22674ft 401kts
24-Apr-19 17:35 34.195884 -119.705137 90 20060ft 393kts
24-Apr-19 17:36 34.193994 -119.575945 90 17746ft 376kts
24-Apr-19 17:37 34.192322 -119.452645 90 15568ft 359kts
24-Apr-19 17:38 34.190782 -119.334691 91 13955ft 340kts
24-Apr-19 17:39 34.188719 -119.218501 91 13812ft 342kts
24-Apr-19 17:40 34.186820 -119.106054 90 11747ft 330kts
24-Apr-19 17:41 34.164176 -119.006560 115 11009ft 283kts
24-Apr-19 17:42 34.129353 -118.918303 115 10996ft 296kts
24-Apr-19 17:43 34.094865 -118.830206 114 11001ft 296kts
24-Apr-19 17:44 34.059642 -118.740128 114 10640ft 290kts
24-Apr-19 17:45 34.028336 -118.652781 100 9419ft 276kts
24-Apr-19 17:46 34.025977 -118.563033 81 8357ft 261kts
24-Apr-19 17:47 34.034456 -118.472954 89 7405ft 268kts
24-Apr-19 17:49 34.031720 -118.383548 91 5988ft 269kts
24-Apr-19 17:50 34.029030 -118.302606 92 5974ft 236kts
24-Apr-19 17:51 34.026512 -118.223497 91 4931ft 233kts
24-Apr-19 17:52 34.024656 -118.147939 91 3619ft 211kts
24-Apr-19 17:53 34.006633 -118.092212 166 3566ft 192kts
24-Apr-19 17:54 33.960054 -118.103092 242 3536ft 186kts
24-Apr-19 17:55 33.958864 -118.164904 265 3538ft 185kts
24-Apr-19 17:56 33.953606 -118.224849 262 2719ft 158kts
24-Apr-19 17:57 33.948597 -118.273966 262 1923ft 143kts
24-Apr-19 17:58 33.943844 -118.320893 262 1152ft 139kts
24-Apr-19 17:59 33.938954 -118.366415 263 398ft 134kts
24-Apr-19 18:00 33.935659 -118.401146 275 111ft 35kts
24-Apr-19 18:01 33.936234 -118.404046 270 111ft 0kts
24-Apr-19 18:02 33.937125 -118.409014 351 111ft 17kts
24-Apr-19 18:03 33.940353 -118.408011 37 111ft 8kts
24-Apr-19 18:04 33.940466 -118.407442 98 111ft 0kts

Navigation Log

Ident Type
Flight plan parsing failed, navigation log unavailable